sensor_id;sensor_type;location;lat;lon;timestamp;P1;durP1;ratioP1;P2;durP2;ratioP2
2107;SDS011;1060;52.492;13.388;2024-02-04T00:09:34;6.90;;;3.37;;
2107;SDS011;1060;52.492;13.388;2024-02-04T00:27:56;10.80;;;4.20;;
2107;SDS011;1060;52.492;13.388;2024-02-04T00:31:17;11.03;;;3.60;;
2107;SDS011;1060;52.492;13.388;2024-02-04T00:38:07;7.37;;;3.93;;
2107;SDS011;1060;52.492;13.388;2024-02-04T00:40:28;4.60;;;2.97;;
2107;SDS011;1060;52.492;13.388;2024-02-04T00:42:58;7.30;;;2.90;;
2107;SDS011;1060;52.492;13.388;2024-02-04T00:45:43;6.93;;;2.97;;
2107;SDS011;1060;52.492;13.388;2024-02-04T00:48:13;6.27;;;3.43;;
2107;SDS011;1060;52.492;13.388;2024-02-04T00:50:40;13.70;;;4.33;;
2107;SDS011;1060;52.492;13.388;2024-02-04T00:53:30;7.03;;;2.90;;
2107;SDS011;1060;52.492;13.388;2024-02-04T00:56:06;13.07;;;4.60;;
2107;SDS011;1060;52.492;13.388;2024-02-04T00:58:34;10.33;;;4.33;;
2107;SDS011;1060;52.492;13.388;2024-02-04T01:01:13;14.63;;;4.30;;
2107;SDS011;1060;52.492;13.388;2024-02-04T01:04:01;4.20;;;3.20;;
2107;SDS011;1060;52.492;13.388;2024-02-04T01:06:38;4.33;;;3.03;;
2107;SDS011;1060;52.492;13.388;2024-02-04T01:09:12;8.97;;;3.17;;
2107;SDS011;1060;52.492;13.388;2024-02-04T01:14:48;15.80;;;4.73;;
2107;SDS011;1060;52.492;13.388;2024-02-04T01:17:59;9.90;;;3.40;;
2107;SDS011;1060;52.492;13.388;2024-02-04T01:20:28;11.27;;;4.23;;
2107;SDS011;1060;52.492;13.388;2024-02-04T01:23:06;6.50;;;4.03;;
2107;SDS011;1060;52.492;13.388;2024-02-04T01:25:36;10.43;;;3.43;;
2107;SDS011;1060;52.492;13.388;2024-02-04T01:28:14;18.27;;;4.43;;
2107;SDS011;1060;52.492;13.388;2024-02-04T01:30:48;13.87;;;5.07;;
2107;SDS011;1060;52.492;13.388;2024-02-04T01:35:55;10.20;;;5.03;;
2107;SDS011;1060;52.492;13.388;2024-02-04T01:38:31;16.60;;;6.60;;
2107;SDS011;1060;52.492;13.388;2024-02-04T01:41:06;16.13;;;4.50;;
2107;SDS011;1060;52.492;13.388;2024-02-04T01:44:20;6.07;;;4.07;;
2107;SDS011;1060;52.492;13.388;2024-02-04T01:46:52;7.43;;;3.50;;
2107;SDS011;1060;52.492;13.388;2024-02-04T01:49:33;13.67;;;4.37;;
2107;SDS011;1060;52.492;13.388;2024-02-04T01:52:37;4.93;;;3.97;;
2107;SDS011;1060;52.492;13.388;2024-02-04T01:55:45;9.63;;;3.80;;
2107;SDS011;1060;52.492;13.388;2024-02-04T01:58:37;11.43;;;5.20;;
2107;SDS011;1060;52.492;13.388;2024-02-04T02:01:17;16.23;;;5.73;;
2107;SDS011;1060;52.492;13.388;2024-02-04T02:03:46;7.73;;;3.97;;
2107;SDS011;1060;52.492;13.388;2024-02-04T02:06:20;15.33;;;4.90;;
2107;SDS011;1060;52.492;13.388;2024-02-04T02:08:47;9.60;;;4.80;;
2107;SDS011;1060;52.492;13.388;2024-02-04T02:11:24;8.70;;;4.37;;
2107;SDS011;1060;52.492;13.388;2024-02-04T02:17:05;10.13;;;3.90;;
2107;SDS011;1060;52.492;13.388;2024-02-04T02:26:49;9.90;;;3.60;;
2107;SDS011;1060;52.492;13.388;2024-02-04T02:29:24;13.90;;;4.73;;
2107;SDS011;1060;52.492;13.388;2024-02-04T02:32:03;8.17;;;4.00;;
2107;SDS011;1060;52.492;13.388;2024-02-04T02:35:44;10.17;;;3.60;;
2107;SDS011;1060;52.492;13.388;2024-02-04T02:38:28;6.60;;;2.80;;
2107;SDS011;1060;52.492;13.388;2024-02-04T02:41:23;4.17;;;3.03;;
2107;SDS011;1060;52.492;13.388;2024-02-04T02:44:23;12.32;;;4.65;;
2107;SDS011;1060;52.492;13.388;2024-02-04T02:46:59;11.57;;;3.47;;
2107;SDS011;1060;52.492;13.388;2024-02-04T02:50:02;9.20;;;2.97;;
2107;SDS011;1060;52.492;13.388;2024-02-04T02:52:57;10.50;;;3.87;;
2107;SDS011;1060;52.492;13.388;2024-02-04T02:55:51;6.43;;;3.70;;
2107;SDS011;1060;52.492;13.388;2024-02-04T02:58:45;14.60;;;4.67;;
2107;SDS011;1060;52.492;13.388;2024-02-04T03:01:17;7.80;;;2.97;;
2107;SDS011;1060;52.492;13.388;2024-02-04T03:07:03;15.43;;;4.93;;
2107;SDS011;1060;52.492;13.388;2024-02-04T03:09:34;14.83;;;3.73;;
2107;SDS011;1060;52.492;13.388;2024-02-04T03:12:04;7.83;;;4.13;;
2107;SDS011;1060;52.492;13.388;2024-02-04T03:14:42;9.30;;;3.53;;
2107;SDS011;1060;52.492;13.388;2024-02-04T03:17:09;10.90;;;4.70;;
2107;SDS011;1060;52.492;13.388;2024-02-04T03:19:39;10.60;;;5.23;;
2107;SDS011;1060;52.492;13.388;2024-02-04T03:22:07;8.23;;;3.37;;
2107;SDS011;1060;52.492;13.388;2024-02-04T03:27:10;10.67;;;4.77;;
2107;SDS011;1060;52.492;13.388;2024-02-04T03:29:36;12.13;;;6.27;;
2107;SDS011;1060;52.492;13.388;2024-02-04T03:32:03;7.70;;;4.23;;
2107;SDS011;1060;52.492;13.388;2024-02-04T03:34:31;13.30;;;6.50;;
2107;SDS011;1060;52.492;13.388;2024-02-04T03:37:05;12.30;;;3.80;;
2107;SDS011;1060;52.492;13.388;2024-02-04T03:39:44;8.27;;;4.00;;
2107;SDS011;1060;52.492;13.388;2024-02-04T03:42:21;6.47;;;3.80;;
2107;SDS011;1060;52.492;13.388;2024-02-04T03:44:57;5.10;;;4.07;;
2107;SDS011;1060;52.492;13.388;2024-02-04T03:47:28;5.70;;;4.00;;
2107;SDS011;1060;52.492;13.388;2024-02-04T03:49:57;9.83;;;3.43;;
2107;SDS011;1060;52.492;13.388;2024-02-04T03:52:24;8.77;;;4.23;;
2107;SDS011;1060;52.492;13.388;2024-02-04T03:54:50;11.63;;;4.10;;
2107;SDS011;1060;52.492;13.388;2024-02-04T03:57:19;10.40;;;4.83;;
2107;SDS011;1060;52.492;13.388;2024-02-04T03:59:46;10.10;;;4.23;;
2107;SDS011;1060;52.492;13.388;2024-02-04T04:02:12;4.73;;;3.97;;
2107;SDS011;1060;52.492;13.388;2024-02-04T04:04:44;4.70;;;3.60;;
2107;SDS011;1060;52.492;13.388;2024-02-04T04:07:15;5.20;;;3.90;;
2107;SDS011;1060;52.492;13.388;2024-02-04T04:09:45;11.50;;;6.10;;
2107;SDS011;1060;52.492;13.388;2024-02-04T04:12:11;6.70;;;3.80;;
2107;SDS011;1060;52.492;13.388;2024-02-04T04:14:37;4.87;;;3.53;;
2107;SDS011;1060;52.492;13.388;2024-02-04T04:17:04;4.37;;;3.50;;
2107;SDS011;1060;52.492;13.388;2024-02-04T04:19:39;11.40;;;3.97;;
2107;SDS011;1060;52.492;13.388;2024-02-04T04:22:05;8.93;;;4.20;;
2107;SDS011;1060;52.492;13.388;2024-02-04T04:24:34;11.13;;;4.00;;
2107;SDS011;1060;52.492;13.388;2024-02-04T04:27:01;8.03;;;3.33;;
2107;SDS011;1060;52.492;13.388;2024-02-04T04:29:27;6.53;;;3.13;;
2107;SDS011;1060;52.492;13.388;2024-02-04T04:31:58;13.10;;;4.40;;
2107;SDS011;1060;52.492;13.388;2024-02-04T04:34:24;5.70;;;3.70;;
2107;SDS011;1060;52.492;13.388;2024-02-04T04:36:51;3.73;;;2.50;;
2107;SDS011;1060;52.492;13.388;2024-02-04T04:39:17;10.27;;;5.50;;
2107;SDS011;1060;52.492;13.388;2024-02-04T04:41:43;7.90;;;4.50;;
2107;SDS011;1060;52.492;13.388;2024-02-04T04:44:10;9.37;;;3.50;;
2107;SDS011;1060;52.492;13.388;2024-02-04T04:46:42;9.43;;;3.47;;
2107;SDS011;1060;52.492;13.388;2024-02-04T04:49:09;5.87;;;4.10;;
2107;SDS011;1060;52.492;13.388;2024-02-04T04:51:35;4.40;;;2.80;;
2107;SDS011;1060;52.492;13.388;2024-02-04T04:54:01;8.90;;;4.00;;
2107;SDS011;1060;52.492;13.388;2024-02-04T04:56:27;5.97;;;3.20;;
2107;SDS011;1060;52.492;13.388;2024-02-04T04:58:54;5.77;;;3.60;;
2107;SDS011;1060;52.492;13.388;2024-02-04T05:01:20;9.03;;;3.67;;
2107;SDS011;1060;52.492;13.388;2024-02-04T05:03:46;5.30;;;2.97;;
2107;SDS011;1060;52.492;13.388;2024-02-04T05:06:16;4.70;;;2.90;;
2107;SDS011;1060;52.492;13.388;2024-02-04T05:08:42;7.10;;;3.50;;
2107;SDS011;1060;52.492;13.388;2024-02-04T05:11:08;4.63;;;2.90;;
2107;SDS011;1060;52.492;13.388;2024-02-04T05:13:35;9.20;;;2.50;;
2107;SDS011;1060;52.492;13.388;2024-02-04T05:16:04;7.70;;;2.90;;
2107;SDS011;1060;52.492;13.388;2024-02-04T05:18:31;3.40;;;2.10;;
2107;SDS011;1060;52.492;13.388;2024-02-04T05:21:03;6.73;;;3.73;;
2107;SDS011;1060;52.492;13.388;2024-02-04T05:23:29;7.10;;;3.60;;
2107;SDS011;1060;52.492;13.388;2024-02-04T05:25:56;8.00;;;3.07;;
2107;SDS011;1060;52.492;13.388;2024-02-04T05:28:22;3.53;;;3.00;;
2107;SDS011;1060;52.492;13.388;2024-02-04T05:30:51;6.43;;;2.70;;
2107;SDS011;1060;52.492;13.388;2024-02-04T05:33:18;4.97;;;2.70;;
2107;SDS011;1060;52.492;13.388;2024-02-04T05:35:45;4.50;;;3.37;;
2107;SDS011;1060;52.492;13.388;2024-02-04T05:38:11;9.20;;;3.60;;
2107;SDS011;1060;52.492;13.388;2024-02-04T05:40:37;6.60;;;2.30;;
2107;SDS011;1060;52.492;13.388;2024-02-04T05:43:03;10.17;;;3.30;;
2107;SDS011;1060;52.492;13.388;2024-02-04T05:45:38;5.63;;;2.40;;
2107;SDS011;1060;52.492;13.388;2024-02-04T05:48:08;10.40;;;3.90;;
2107;SDS011;1060;52.492;13.388;2024-02-04T05:50:35;8.70;;;3.23;;
2107;SDS011;1060;52.492;13.388;2024-02-04T05:53:01;3.47;;;2.93;;
2107;SDS011;1060;52.492;13.388;2024-02-04T05:55:28;7.83;;;3.13;;
2107;SDS011;1060;52.492;13.388;2024-02-04T05:57:54;11.77;;;4.73;;
2107;SDS011;1060;52.492;13.388;2024-02-04T06:00:20;5.40;;;4.13;;
2107;SDS011;1060;52.492;13.388;2024-02-04T06:02:46;4.10;;;3.70;;
2107;SDS011;1060;52.492;13.388;2024-02-04T06:05:13;4.07;;;3.77;;
2107;SDS011;1060;52.492;13.388;2024-02-04T06:07:39;4.87;;;3.57;;
2107;SDS011;1060;52.492;13.388;2024-02-04T06:10:08;5.77;;;4.20;;
2107;SDS011;1060;52.492;13.388;2024-02-04T06:12:34;11.93;;;3.50;;
2107;SDS011;1060;52.492;13.388;2024-02-04T06:15:01;7.10;;;3.40;;
2107;SDS011;1060;52.492;13.388;2024-02-04T06:17:30;6.13;;;5.10;;
2107;SDS011;1060;52.492;13.388;2024-02-04T06:19:56;5.73;;;5.17;;
2107;SDS011;1060;52.492;13.388;2024-02-04T06:22:24;5.63;;;4.23;;
2107;SDS011;1060;52.492;13.388;2024-02-04T06:24:50;4.37;;;3.77;;
2107;SDS011;1060;52.492;13.388;2024-02-04T06:27:16;4.40;;;3.17;;
2107;SDS011;1060;52.492;13.388;2024-02-04T06:29:45;8.80;;;4.43;;
2107;SDS011;1060;52.492;13.388;2024-02-04T06:32:12;5.37;;;3.50;;
2107;SDS011;1060;52.492;13.388;2024-02-04T06:34:47;3.50;;;3.20;;
2107;SDS011;1060;52.492;13.388;2024-02-04T06:37:14;6.50;;;4.27;;
2107;SDS011;1060;52.492;13.388;2024-02-04T06:39:40;7.33;;;4.47;;
2107;SDS011;1060;52.492;13.388;2024-02-04T06:42:12;10.13;;;5.23;;
2107;SDS011;1060;52.492;13.388;2024-02-04T06:44:41;6.20;;;4.23;;
2107;SDS011;1060;52.492;13.388;2024-02-04T06:47:07;8.90;;;4.73;;
2107;SDS011;1060;52.492;13.388;2024-02-04T06:49:34;9.93;;;4.50;;
2107;SDS011;1060;52.492;13.388;2024-02-04T06:52:01;8.10;;;5.10;;
2107;SDS011;1060;52.492;13.388;2024-02-04T06:54:27;12.47;;;6.70;;
2107;SDS011;1060;52.492;13.388;2024-02-04T06:56:53;12.23;;;5.40;;
2107;SDS011;1060;52.492;13.388;2024-02-04T06:59:20;8.10;;;6.03;;
2107;SDS011;1060;52.492;13.388;2024-02-04T07:01:46;11.33;;;6.20;;
2107;SDS011;1060;52.492;13.388;2024-02-04T07:04:12;7.30;;;5.70;;
2107;SDS011;1060;52.492;13.388;2024-02-04T07:06:38;8.87;;;7.80;;
2107;SDS011;1060;52.492;13.388;2024-02-04T07:09:04;10.30;;;6.30;;
2107;SDS011;1060;52.492;13.388;2024-02-04T07:11:31;11.57;;;5.70;;
2107;SDS011;1060;52.492;13.388;2024-02-04T07:13:57;11.70;;;6.87;;
2107;SDS011;1060;52.492;13.388;2024-02-04T07:16:25;9.33;;;5.43;;
2107;SDS011;1060;52.492;13.388;2024-02-04T07:19:02;10.27;;;6.27;;
2107;SDS011;1060;52.492;13.388;2024-02-04T07:21:31;9.83;;;7.07;;
2107;SDS011;1060;52.492;13.388;2024-02-04T07:23:58;14.67;;;6.77;;
2107;SDS011;1060;52.492;13.388;2024-02-04T07:26:29;10.90;;;6.83;;
2107;SDS011;1060;52.492;13.388;2024-02-04T07:29:02;6.53;;;5.93;;
2107;SDS011;1060;52.492;13.388;2024-02-04T07:31:31;15.20;;;6.10;;
2107;SDS011;1060;52.492;13.388;2024-02-04T07:34:15;13.03;;;6.77;;
2107;SDS011;1060;52.492;13.388;2024-02-04T07:36:47;8.70;;;7.30;;
2107;SDS011;1060;52.492;13.388;2024-02-04T07:39:17;10.93;;;7.07;;
2107;SDS011;1060;52.492;13.388;2024-02-04T07:41:51;11.60;;;6.93;;
2107;SDS011;1060;52.492;13.388;2024-02-04T07:44:38;6.93;;;5.80;;
2107;SDS011;1060;52.492;13.388;2024-02-04T07:47:05;8.20;;;4.67;;
2107;SDS011;1060;52.492;13.388;2024-02-04T07:49:34;8.87;;;6.67;;
2107;SDS011;1060;52.492;13.388;2024-02-04T07:52:04;17.30;;;6.70;;
2107;SDS011;1060;52.492;13.388;2024-02-04T07:54:40;8.63;;;5.90;;
2107;SDS011;1060;52.492;13.388;2024-02-04T07:57:09;8.33;;;5.33;;
2107;SDS011;1060;52.492;13.388;2024-02-04T07:59:36;10.00;;;6.23;;
2107;SDS011;1060;52.492;13.388;2024-02-04T08:02:05;8.50;;;5.13;;
2107;SDS011;1060;52.492;13.388;2024-02-04T08:04:34;7.87;;;4.97;;
2107;SDS011;1060;52.492;13.388;2024-02-04T08:07:01;15.00;;;6.70;;
2107;SDS011;1060;52.492;13.388;2024-02-04T08:09:28;12.23;;;9.30;;
2107;SDS011;1060;52.492;13.388;2024-02-04T08:11:57;6.23;;;5.37;;
2107;SDS011;1060;52.492;13.388;2024-02-04T08:14:41;8.83;;;6.77;;
2107;SDS011;1060;52.492;13.388;2024-02-04T08:17:17;13.53;;;6.00;;
2107;SDS011;1060;52.492;13.388;2024-02-04T08:19:46;10.43;;;4.77;;
2107;SDS011;1060;52.492;13.388;2024-02-04T08:22:21;5.83;;;4.50;;
2107;SDS011;1060;52.492;13.388;2024-02-04T08:25:06;12.83;;;8.60;;
2107;SDS011;1060;52.492;13.388;2024-02-04T08:27:42;10.00;;;5.27;;
2107;SDS011;1060;52.492;13.388;2024-02-04T08:33:16;10.40;;;5.27;;
2107;SDS011;1060;52.492;13.388;2024-02-04T08:35:47;7.63;;;4.97;;
2107;SDS011;1060;52.492;13.388;2024-02-04T08:38:19;6.27;;;4.33;;
2107;SDS011;1060;52.492;13.388;2024-02-04T08:40:48;7.43;;;4.90;;
2107;SDS011;1060;52.492;13.388;2024-02-04T08:43:23;7.57;;;4.23;;
2107;SDS011;1060;52.492;13.388;2024-02-04T08:45:52;6.90;;;5.10;;
2107;SDS011;1060;52.492;13.388;2024-02-04T08:48:18;7.90;;;5.90;;
2107;SDS011;1060;52.492;13.388;2024-02-04T08:50:44;7.93;;;4.43;;
2107;SDS011;1060;52.492;13.388;2024-02-04T08:53:11;5.30;;;4.30;;
2107;SDS011;1060;52.492;13.388;2024-02-04T08:55:39;6.43;;;4.20;;
2107;SDS011;1060;52.492;13.388;2024-02-04T08:58:06;5.43;;;3.87;;
2107;SDS011;1060;52.492;13.388;2024-02-04T09:00:32;7.97;;;4.30;;
2107;SDS011;1060;52.492;13.388;2024-02-04T09:02:58;6.80;;;4.70;;
2107;SDS011;1060;52.492;13.388;2024-02-04T09:05:24;8.20;;;4.50;;
2107;SDS011;1060;52.492;13.388;2024-02-04T09:07:51;9.20;;;4.07;;
2107;SDS011;1060;52.492;13.388;2024-02-04T09:10:17;9.57;;;4.43;;
2107;SDS011;1060;52.492;13.388;2024-02-04T09:12:43;10.67;;;4.67;;
2107;SDS011;1060;52.492;13.388;2024-02-04T09:15:10;5.27;;;2.97;;
2107;SDS011;1060;52.492;13.388;2024-02-04T09:17:48;7.83;;;3.10;;
2107;SDS011;1060;52.492;13.388;2024-02-04T09:20:16;6.50;;;3.57;;
2107;SDS011;1060;52.492;13.388;2024-02-04T09:22:43;9.53;;;5.20;;
2107;SDS011;1060;52.492;13.388;2024-02-04T09:38:45;8.10;;;4.30;;
2107;SDS011;1060;52.492;13.388;2024-02-04T09:44:17;10.80;;;3.33;;
2107;SDS011;1060;52.492;13.388;2024-02-04T09:53:00;9.70;;;3.07;;
2107;SDS011;1060;52.492;13.388;2024-02-04T10:03:58;8.00;;;3.33;;
2107;SDS011;1060;52.492;13.388;2024-02-04T10:07:05;13.70;;;5.43;;
2107;SDS011;1060;52.492;13.388;2024-02-04T10:09:35;11.00;;;2.80;;
2107;SDS011;1060;52.492;13.388;2024-02-04T10:12:34;6.83;;;3.90;;
2107;SDS011;1060;52.492;13.388;2024-02-04T10:15:15;6.50;;;2.27;;
2107;SDS011;1060;52.492;13.388;2024-02-04T10:17:42;10.47;;;3.40;;
2107;SDS011;1060;52.492;13.388;2024-02-04T10:20:11;4.30;;;2.33;;
2107;SDS011;1060;52.492;13.388;2024-02-04T10:22:51;6.40;;;3.87;;
2107;SDS011;1060;52.492;13.388;2024-02-04T10:25:20;8.60;;;3.57;;
2107;SDS011;1060;52.492;13.388;2024-02-04T10:27:49;4.80;;;2.63;;
2107;SDS011;1060;52.492;13.388;2024-02-04T10:30:15;5.10;;;3.70;;
2107;SDS011;1060;52.492;13.388;2024-02-04T10:32:45;8.97;;;2.90;;
2107;SDS011;1060;52.492;13.388;2024-02-04T10:35:16;3.90;;;2.00;;
2107;SDS011;1060;52.492;13.388;2024-02-04T10:37:47;6.60;;;3.10;;
2107;SDS011;1060;52.492;13.388;2024-02-04T10:40:16;3.80;;;2.53;;
2107;SDS011;1060;52.492;13.388;2024-02-04T10:43:05;5.00;;;2.87;;
2107;SDS011;1060;52.492;13.388;2024-02-04T10:46:39;4.50;;;2.63;;
2107;SDS011;1060;52.492;13.388;2024-02-04T10:49:00;7.70;;;3.10;;
2107;SDS011;1060;52.492;13.388;2024-02-04T10:51:37;5.40;;;2.17;;
2107;SDS011;1060;52.492;13.388;2024-02-04T10:54:20;8.80;;;2.60;;
2107;SDS011;1060;52.492;13.388;2024-02-04T10:56:59;5.33;;;3.60;;
2107;SDS011;1060;52.492;13.388;2024-02-04T10:59:29;8.10;;;2.80;;
2107;SDS011;1060;52.492;13.388;2024-02-04T11:01:57;8.43;;;3.03;;
2107;SDS011;1060;52.492;13.388;2024-02-04T11:04:24;6.67;;;4.20;;
2107;SDS011;1060;52.492;13.388;2024-02-04T11:06:53;6.73;;;4.70;;
2107;SDS011;1060;52.492;13.388;2024-02-04T11:09:24;6.07;;;2.90;;
2107;SDS011;1060;52.492;13.388;2024-02-04T11:11:58;7.20;;;2.87;;
2107;SDS011;1060;52.492;13.388;2024-02-04T11:14:28;6.30;;;2.23;;
2107;SDS011;1060;52.492;13.388;2024-02-04T11:28:01;6.13;;;3.20;;
2107;SDS011;1060;52.492;13.388;2024-02-04T11:30:32;6.33;;;2.57;;
2107;SDS011;1060;52.492;13.388;2024-02-04T11:48:35;4.10;;;1.97;;
2107;SDS011;1060;52.492;13.388;2024-02-04T11:54:51;5.53;;;2.97;;
2107;SDS011;1060;52.492;13.388;2024-02-04T11:57:35;7.50;;;2.70;;
2107;SDS011;1060;52.492;13.388;2024-02-04T12:00:42;5.60;;;2.40;;
2107;SDS011;1060;52.492;13.388;2024-02-04T12:03:39;6.43;;;3.43;;
2107;SDS011;1060;52.492;13.388;2024-02-04T12:06:17;3.27;;;2.40;;
2107;SDS011;1060;52.492;13.388;2024-02-04T12:08:57;4.43;;;2.13;;
2107;SDS011;1060;52.492;13.388;2024-02-04T12:12:21;10.07;;;3.20;;
2107;SDS011;1060;52.492;13.388;2024-02-04T12:15:04;9.47;;;2.03;;
2107;SDS011;1060;52.492;13.388;2024-02-04T12:17:34;6.67;;;2.20;;
2107;SDS011;1060;52.492;13.388;2024-02-04T12:20:19;7.33;;;5.73;;
2107;SDS011;1060;52.492;13.388;2024-02-04T12:23:24;4.90;;;2.70;;
2107;SDS011;1060;52.492;13.388;2024-02-04T12:25:54;8.33;;;3.80;;
2107;SDS011;1060;52.492;13.388;2024-02-04T12:28:29;6.50;;;3.53;;
2107;SDS011;1060;52.492;13.388;2024-02-04T12:30:56;4.93;;;2.77;;
2107;SDS011;1060;52.492;13.388;2024-02-04T12:33:25;4.43;;;2.70;;
2107;SDS011;1060;52.492;13.388;2024-02-04T12:35:54;3.70;;;2.20;;
2107;SDS011;1060;52.492;13.388;2024-02-04T12:38:25;5.33;;;2.53;;
2107;SDS011;1060;52.492;13.388;2024-02-04T12:41:00;6.40;;;2.63;;
2107;SDS011;1060;52.492;13.388;2024-02-04T12:43:38;5.33;;;2.50;;
2107;SDS011;1060;52.492;13.388;2024-02-04T12:46:05;4.73;;;2.77;;
2107;SDS011;1060;52.492;13.388;2024-02-04T12:48:33;4.77;;;3.53;;
2107;SDS011;1060;52.492;13.388;2024-02-04T12:51:22;5.33;;;3.30;;
2107;SDS011;1060;52.492;13.388;2024-02-04T12:53:48;9.17;;;3.77;;
2107;SDS011;1060;52.492;13.388;2024-02-04T12:56:25;5.97;;;2.97;;
2107;SDS011;1060;52.492;13.388;2024-02-04T12:58:51;7.03;;;3.97;;
2107;SDS011;1060;52.492;13.388;2024-02-04T13:01:37;9.60;;;2.30;;
2107;SDS011;1060;52.492;13.388;2024-02-04T13:04:12;4.77;;;2.30;;
2107;SDS011;1060;52.492;13.388;2024-02-04T13:07:26;3.07;;;1.90;;
2107;SDS011;1060;52.492;13.388;2024-02-04T13:09:30;3.97;;;2.20;;
2107;SDS011;1060;52.492;13.388;2024-02-04T13:12:07;6.23;;;2.80;;
2107;SDS011;1060;52.492;13.388;2024-02-04T13:14:50;8.10;;;3.37;;
2107;SDS011;1060;52.492;13.388;2024-02-04T13:17:35;11.63;;;7.43;;
2107;SDS011;1060;52.492;13.388;2024-02-04T13:20:10;7.20;;;2.17;;
2107;SDS011;1060;52.492;13.388;2024-02-04T13:34:07;9.63;;;2.10;;
2107;SDS011;1060;52.492;13.388;2024-02-04T13:36:44;9.10;;;3.10;;
2107;SDS011;1060;52.492;13.388;2024-02-04T13:39:37;9.30;;;3.90;;
2107;SDS011;1060;52.492;13.388;2024-02-04T13:42:39;3.50;;;2.00;;
2107;SDS011;1060;52.492;13.388;2024-02-04T13:48:19;5.57;;;2.47;;
2107;SDS011;1060;52.492;13.388;2024-02-04T13:50:48;5.40;;;2.30;;
2107;SDS011;1060;52.492;13.388;2024-02-04T13:53:59;5.57;;;3.40;;
2107;SDS011;1060;52.492;13.388;2024-02-04T13:56:29;9.77;;;4.13;;
2107;SDS011;1060;52.492;13.388;2024-02-04T13:59:01;5.03;;;2.90;;
2107;SDS011;1060;52.492;13.388;2024-02-04T14:01:59;6.90;;;3.10;;
2107;SDS011;1060;52.492;13.388;2024-02-04T14:04:52;7.10;;;3.77;;
2107;SDS011;1060;52.492;13.388;2024-02-04T14:07:18;5.30;;;3.00;;
2107;SDS011;1060;52.492;13.388;2024-02-04T14:09:51;4.83;;;3.10;;
2107;SDS011;1060;52.492;13.388;2024-02-04T14:12:26;7.30;;;2.90;;
2107;SDS011;1060;52.492;13.388;2024-02-04T14:15:04;9.10;;;3.80;;
2107;SDS011;1060;52.492;13.388;2024-02-04T14:17:42;6.70;;;3.87;;
2107;SDS011;1060;52.492;13.388;2024-02-04T14:20:15;11.73;;;3.77;;
2107;SDS011;1060;52.492;13.388;2024-02-04T14:22:53;10.73;;;3.60;;
2107;SDS011;1060;52.492;13.388;2024-02-04T14:25:25;10.97;;;4.47;;
2107;SDS011;1060;52.492;13.388;2024-02-04T14:28:17;12.40;;;4.07;;
2107;SDS011;1060;52.492;13.388;2024-02-04T14:30:45;9.23;;;4.17;;
2107;SDS011;1060;52.492;13.388;2024-02-04T14:33:18;10.53;;;4.27;;
2107;SDS011;1060;52.492;13.388;2024-02-04T14:35:47;9.60;;;3.20;;
2107;SDS011;1060;52.492;13.388;2024-02-04T14:38:17;7.00;;;3.43;;
2107;SDS011;1060;52.492;13.388;2024-02-04T14:43:56;4.73;;;2.60;;
2107;SDS011;1060;52.492;13.388;2024-02-04T14:49:26;6.30;;;3.67;;
2107;SDS011;1060;52.492;13.388;2024-02-04T14:51:55;5.33;;;3.40;;
2107;SDS011;1060;52.492;13.388;2024-02-04T14:54:47;9.93;;;3.70;;
2107;SDS011;1060;52.492;13.388;2024-02-04T14:57:23;6.50;;;2.87;;
2107;SDS011;1060;52.492;13.388;2024-02-04T15:00:01;12.30;;;3.50;;
2107;SDS011;1060;52.492;13.388;2024-02-04T15:02:43;8.30;;;3.97;;
2107;SDS011;1060;52.492;13.388;2024-02-04T15:05:18;4.07;;;2.50;;
2107;SDS011;1060;52.492;13.388;2024-02-04T15:07:50;4.87;;;3.13;;
2107;SDS011;1060;52.492;13.388;2024-02-04T15:10:17;7.90;;;2.40;;
2107;SDS011;1060;52.492;13.388;2024-02-04T15:12:47;4.77;;;3.17;;
2107;SDS011;1060;52.492;13.388;2024-02-04T15:17:58;7.77;;;4.50;;
2107;SDS011;1060;52.492;13.388;2024-02-04T15:20:56;6.20;;;3.20;;
2107;SDS011;1060;52.492;13.388;2024-02-04T15:23:31;6.67;;;3.60;;
2107;SDS011;1060;52.492;13.388;2024-02-04T15:26:10;5.30;;;3.53;;
2107;SDS011;1060;52.492;13.388;2024-02-04T15:28:49;10.53;;;3.63;;
2107;SDS011;1060;52.492;13.388;2024-02-04T15:31:22;8.03;;;3.33;;
2107;SDS011;1060;52.492;13.388;2024-02-04T15:34:13;9.40;;;4.17;;
2107;SDS011;1060;52.492;13.388;2024-02-04T15:36:40;8.90;;;4.23;;
2107;SDS011;1060;52.492;13.388;2024-02-04T15:39:19;11.17;;;4.50;;
2107;SDS011;1060;52.492;13.388;2024-02-04T15:41:53;5.53;;;3.07;;
2107;SDS011;1060;52.492;13.388;2024-02-04T15:44:22;11.03;;;3.10;;
2107;SDS011;1060;52.492;13.388;2024-02-04T15:46:48;5.80;;;2.70;;
2107;SDS011;1060;52.492;13.388;2024-02-04T15:49:16;6.17;;;3.27;;
2107;SDS011;1060;52.492;13.388;2024-02-04T15:51:49;7.53;;;3.10;;
2107;SDS011;1060;52.492;13.388;2024-02-04T15:54:28;7.30;;;4.30;;
2107;SDS011;1060;52.492;13.388;2024-02-04T15:56:55;9.63;;;4.37;;
2107;SDS011;1060;52.492;13.388;2024-02-04T16:02:31;9.77;;;3.40;;
2107;SDS011;1060;52.492;13.388;2024-02-04T16:05:00;4.43;;;2.90;;
2107;SDS011;1060;52.492;13.388;2024-02-04T16:07:29;12.13;;;4.90;;
2107;SDS011;1060;52.492;13.388;2024-02-04T16:09:59;6.60;;;4.13;;
2107;SDS011;1060;52.492;13.388;2024-02-04T16:26:10;5.50;;;3.50;;
2107;SDS011;1060;52.492;13.388;2024-02-04T16:28:40;10.33;;;4.00;;
2107;SDS011;1060;52.492;13.388;2024-02-04T16:31:42;13.30;;;4.10;;
2107;SDS011;1060;52.492;13.388;2024-02-04T16:34:24;8.87;;;3.27;;
2107;SDS011;1060;52.492;13.388;2024-02-04T16:36:55;7.67;;;2.97;;
2107;SDS011;1060;52.492;13.388;2024-02-04T16:39:24;6.27;;;3.00;;
2107;SDS011;1060;52.492;13.388;2024-02-04T16:41:51;6.43;;;4.33;;
2107;SDS011;1060;52.492;13.388;2024-02-04T16:44:19;6.07;;;3.50;;
2107;SDS011;1060;52.492;13.388;2024-02-04T16:47:12;4.40;;;3.00;;
2107;SDS011;1060;52.492;13.388;2024-02-04T16:50:09;11.00;;;3.70;;
2107;SDS011;1060;52.492;13.388;2024-02-04T16:52:49;5.27;;;3.27;;
2107;SDS011;1060;52.492;13.388;2024-02-04T16:55:35;8.23;;;2.70;;
2107;SDS011;1060;52.492;13.388;2024-02-04T16:58:01;7.70;;;3.70;;
2107;SDS011;1060;52.492;13.388;2024-02-04T17:00:30;7.10;;;2.97;;
2107;SDS011;1060;52.492;13.388;2024-02-04T17:02:59;4.50;;;3.47;;
2107;SDS011;1060;52.492;13.388;2024-02-04T17:05:29;5.17;;;3.40;;
2107;SDS011;1060;52.492;13.388;2024-02-04T17:08:26;8.67;;;3.70;;
2107;SDS011;1060;52.492;13.388;2024-02-04T17:10:52;4.67;;;3.10;;
2107;SDS011;1060;52.492;13.388;2024-02-04T17:13:30;5.33;;;3.10;;
2107;SDS011;1060;52.492;13.388;2024-02-04T17:16:25;5.93;;;3.00;;
2107;SDS011;1060;52.492;13.388;2024-02-04T17:18:55;9.23;;;3.27;;
2107;SDS011;1060;52.492;13.388;2024-02-04T17:21:40;4.80;;;3.00;;
2107;SDS011;1060;52.492;13.388;2024-02-04T17:24:13;6.67;;;2.80;;
2107;SDS011;1060;52.492;13.388;2024-02-04T17:26:45;7.23;;;3.50;;
2107;SDS011;1060;52.492;13.388;2024-02-04T17:29:17;7.80;;;3.40;;
2107;SDS011;1060;52.492;13.388;2024-02-04T17:31:46;9.00;;;4.07;;
2107;SDS011;1060;52.492;13.388;2024-02-04T17:34:15;5.33;;;3.30;;
2107;SDS011;1060;52.492;13.388;2024-02-04T17:36:47;7.50;;;3.30;;
2107;SDS011;1060;52.492;13.388;2024-02-04T17:39:14;8.70;;;7.27;;
2107;SDS011;1060;52.492;13.388;2024-02-04T17:41:45;14.30;;;5.07;;
2107;SDS011;1060;52.492;13.388;2024-02-04T17:44:12;8.30;;;4.63;;
2107;SDS011;1060;52.492;13.388;2024-02-04T17:46:39;6.10;;;3.57;;
2107;SDS011;1060;52.492;13.388;2024-02-04T17:49:08;8.53;;;3.60;;
2107;SDS011;1060;52.492;13.388;2024-02-04T17:51:45;9.83;;;4.87;;
2107;SDS011;1060;52.492;13.388;2024-02-04T17:54:17;6.10;;;3.00;;
2107;SDS011;1060;52.492;13.388;2024-02-04T17:56:51;7.50;;;4.60;;
2107;SDS011;1060;52.492;13.388;2024-02-04T17:59:23;9.03;;;5.10;;
2107;SDS011;1060;52.492;13.388;2024-02-04T18:01:51;9.03;;;4.90;;
2107;SDS011;1060;52.492;13.388;2024-02-04T18:04:32;9.30;;;4.60;;
2107;SDS011;1060;52.492;13.388;2024-02-04T18:07:04;9.10;;;4.00;;
2107;SDS011;1060;52.492;13.388;2024-02-04T18:12:14;7.20;;;4.63;;
2107;SDS011;1060;52.492;13.388;2024-02-04T18:14:59;6.77;;;3.40;;
2107;SDS011;1060;52.492;13.388;2024-02-04T18:17:59;6.03;;;3.27;;